createdAt,value
2022-08-22T00:01:26.206Z,20.30
2022-08-22T00:02:47.663Z,20.50
2022-08-22T00:03:00.233Z,20.30
2022-08-22T00:03:00.668Z,20.10
2022-08-22T00:03:03.865Z,20.20
2022-08-22T00:04:24.956Z,20.32
2022-08-22T00:07:21.968Z,20.30
2022-08-22T00:10:07.823Z,20.30
2022-08-22T00:13:19.679Z,20.30
2022-08-22T00:16:03.058Z,20.30
2022-08-22T00:18:44.014Z,20.30
2022-08-22T00:21:32.662Z,20.30
2022-08-22T00:24:17.186Z,20.30
2022-08-22T00:27:02.169Z,20.30
2022-08-22T00:29:54.836Z,20.20
2022-08-22T00:32:38.996Z,20.20
2022-08-22T00:35:44.408Z,20.20
2022-08-22T00:38:22.849Z,20.20
2022-08-22T00:41:24.459Z,20.20
2022-08-22T00:44:23.312Z,20.20
2022-08-22T00:47:26.201Z,20.20
2022-08-22T00:50:26.206Z,20.10
2022-08-22T00:53:40.097Z,20.00
2022-08-22T00:56:28.170Z,20.10
2022-08-22T00:59:31.227Z,20.02
2022-08-22T01:02:32.184Z,20.06
2022-08-22T01:05:20.404Z,20.00
2022-08-22T01:08:20.862Z,19.96
2022-08-22T01:11:11.734Z,19.90
2022-08-22T01:14:06.550Z,19.90
2022-08-22T01:16:47.203Z,19.90
2022-08-22T01:20:01.009Z,19.90
2022-08-22T01:22:52.412Z,19.80
2022-08-22T01:25:46.632Z,19.80
2022-08-22T01:28:36.130Z,19.80
2022-08-22T01:31:38.949Z,19.80
2022-08-22T01:34:39.793Z,19.70
2022-08-22T01:38:04.117Z,19.66
2022-08-22T01:41:01.266Z,19.60
2022-08-22T01:44:00.635Z,19.50
2022-08-22T01:46:32.615Z,19.50
2022-08-22T01:49:24.523Z,19.40
2022-08-22T01:52:07.741Z,19.40
2022-08-22T01:54:58.963Z,19.40
2022-08-22T01:57:27.511Z,19.48
2022-08-22T02:00:08.167Z,19.50
2022-08-22T02:02:56.237Z,19.40
2022-08-22T02:05:31.975Z,19.40
2022-08-22T02:08:31.530Z,19.30
2022-08-22T02:11:50.854Z,19.28
2022-08-22T02:14:43.747Z,19.30
2022-08-22T02:17:29.182Z,19.30
2022-08-22T02:20:18.282Z,19.30
2022-08-22T02:23:09.302Z,19.30
2022-08-22T02:26:02.222Z,19.30
2022-08-22T02:28:57.041Z,19.30
2022-08-22T02:32:02.770Z,19.30
2022-08-22T02:34:54.980Z,19.30
2022-08-22T02:37:37.494Z,19.30
2022-08-22T02:40:35.541Z,19.22
2022-08-22T02:43:49.655Z,19.20
2022-08-22T02:46:54.744Z,19.20
2022-08-22T02:49:51.375Z,19.20
2022-08-22T02:52:39.199Z,19.20
2022-08-22T02:55:23.495Z,19.16
2022-08-22T02:58:32.866Z,19.10
2022-08-22T03:01:02.112Z,19.20
2022-08-22T03:03:38.496Z,19.16
2022-08-22T03:06:28.297Z,19.10
2022-08-22T03:09:28.775Z,19.10
2022-08-22T03:12:39.195Z,19.12
2022-08-22T03:15:26.745Z,19.20
2022-08-22T03:18:16.629Z,19.20
2022-08-22T03:21:11.996Z,19.20
2022-08-22T03:24:14.631Z,19.20
2022-08-22T03:27:32.797Z,19.20
2022-08-22T03:30:12.499Z,19.20
2022-08-22T03:32:56.409Z,19.20
2022-08-22T03:35:50.977Z,19.20
2022-08-22T03:38:24.851Z,19.20
2022-08-22T03:41:15.160Z,19.20
2022-08-22T03:44:33.013Z,19.20
2022-08-22T03:47:42.694Z,19.24
2022-08-22T03:50:40.178Z,19.20
2022-08-22T03:53:25.176Z,19.20
2022-08-22T03:56:28.061Z,19.20
2022-08-22T03:59:20.210Z,19.20
2022-08-22T04:01:57.841Z,19.20
2022-08-22T04:05:04.015Z,19.20
2022-08-22T04:08:09.924Z,19.20
2022-08-22T04:11:16.584Z,19.20
2022-08-22T04:14:16.495Z,19.20
2022-08-22T04:16:49.042Z,19.20
2022-08-22T04:19:38.661Z,19.24
2022-08-22T04:22:33.412Z,19.30
2022-08-22T04:25:08.960Z,19.30
2022-08-22T04:28:08.938Z,19.30
2022-08-22T04:30:47.346Z,19.30
2022-08-22T04:33:55.515Z,19.38
2022-08-22T04:36:35.135Z,19.40
2022-08-22T04:39:18.562Z,19.40
2022-08-22T04:41:50.485Z,19.48
2022-08-22T04:44:28.070Z,19.50
2022-08-22T04:47:06.493Z,19.44
2022-08-22T04:49:49.607Z,19.50
2022-08-22T04:52:43.524Z,19.50
2022-08-22T04:55:25.528Z,19.58
2022-08-22T04:58:12.243Z,19.60
2022-08-22T05:01:00.673Z,19.60
2022-08-22T05:03:30.902Z,19.60
2022-08-22T05:06:01.353Z,19.58
2022-08-22T05:08:35.065Z,19.60
2022-08-22T05:11:06.670Z,19.60
2022-08-22T05:13:55.375Z,19.60
2022-08-22T05:16:30.523Z,19.70
2022-08-22T05:19:05.545Z,19.70
2022-08-22T05:21:38.173Z,19.70
2022-08-22T05:24:17.575Z,19.70
2022-08-22T05:26:52.190Z,19.70
2022-08-22T05:29:25.394Z,19.72
2022-08-22T05:32:03.845Z,19.80
2022-08-22T05:34:39.048Z,19.80
2022-08-22T05:37:17.790Z,19.88
2022-08-22T05:39:51.868Z,19.90
2022-08-22T05:42:28.399Z,19.96
2022-08-22T05:44:55.880Z,20.00
2022-08-22T05:47:36.277Z,20.00
2022-08-22T05:50:07.405Z,20.00
2022-08-22T05:52:44.848Z,20.00
2022-08-22T05:56:00.375Z,20.00
2022-08-22T05:58:38.758Z,20.00
2022-08-22T06:01:24.144Z,20.10
2022-08-22T06:04:27.058Z,20.10
2022-08-22T06:06:58.807Z,20.10
2022-08-22T06:09:43.900Z,20.10
2022-08-22T06:12:22.130Z,20.10
2022-08-22T06:15:01.807Z,20.14
2022-08-22T06:17:36.522Z,20.20
2022-08-22T06:20:08.879Z,20.30
2022-08-22T06:22:52.838Z,20.40
2022-08-22T06:25:32.601Z,20.50
2022-08-22T06:28:08.361Z,20.60
2022-08-22T06:30:39.537Z,20.70
2022-08-22T06:33:12.877Z,20.70
2022-08-22T06:36:07.985Z,20.80
2022-08-22T06:38:56.355Z,20.90
2022-08-22T06:41:30.235Z,21.00
2022-08-22T06:43:59.200Z,21.14
2022-08-22T06:46:29.958Z,21.30
2022-08-22T06:49:00.681Z,21.40
2022-08-22T06:51:28.742Z,21.54
2022-08-22T06:54:05.288Z,21.70
2022-08-22T06:56:42.506Z,21.80
2022-08-22T06:59:16.084Z,21.94
2022-08-22T07:01:51.570Z,22.10
2022-08-22T07:04:26.582Z,22.30
2022-08-22T07:06:57.319Z,22.50
2022-08-22T07:09:36.088Z,22.70
2022-08-22T07:12:29.266Z,22.70
2022-08-22T07:15:09.683Z,22.90
2022-08-22T07:17:40.513Z,23.00
2022-08-22T07:20:33.765Z,23.00
2022-08-22T07:23:06.764Z,23.00
2022-08-22T07:25:52.483Z,23.00
2022-08-22T07:28:51.252Z,23.08
2022-08-22T07:31:58.795Z,23.14
2022-08-22T07:34:59.401Z,23.28
2022-08-22T07:37:52.097Z,23.34
2022-08-22T07:40:53.858Z,23.48
2022-08-22T07:43:35.401Z,23.60
2022-08-22T07:46:19.412Z,23.60
2022-08-22T07:49:08.727Z,23.66
2022-08-22T07:51:52.125Z,23.80
2022-08-22T07:54:32.503Z,23.80
2022-08-22T07:57:07.906Z,23.98
2022-08-22T07:59:39.236Z,24.10
2022-08-22T08:02:13.031Z,24.30
2022-08-22T08:04:41.846Z,24.44
2022-08-22T08:07:13.876Z,24.52
2022-08-22T08:09:46.380Z,24.60
2022-08-22T08:12:16.095Z,24.70
2022-08-22T08:14:51.745Z,24.74
2022-08-22T08:17:31.518Z,24.80
2022-08-22T08:20:06.085Z,24.90
2022-08-22T08:22:34.230Z,24.90
2022-08-22T08:25:02.622Z,24.90
2022-08-22T08:27:53.510Z,24.88
2022-08-22T08:30:45.147Z,24.80
2022-08-22T08:33:26.094Z,24.70
2022-08-22T08:36:11.713Z,24.78
2022-08-22T08:38:53.401Z,24.80
2022-08-22T08:42:17.096Z,24.90
2022-08-22T08:45:11.187Z,25.10
2022-08-22T08:48:00.752Z,25.08
2022-08-22T08:51:24.878Z,25.10
2022-08-22T08:54:39.970Z,25.20
2022-08-22T08:57:26.321Z,25.40
2022-08-22T09:00:12.223Z,25.40
2022-08-22T09:03:08.434Z,25.50
2022-08-22T09:06:07.222Z,25.60
2022-08-22T09:08:53.861Z,25.70
2022-08-22T09:12:05.569Z,25.70
2022-08-22T09:15:05.372Z,25.80
2022-08-22T09:18:29.722Z,25.80
2022-08-22T09:21:36.583Z,25.70
2022-08-22T09:24:25.446Z,25.80
2022-08-22T09:26:57.984Z,25.90
2022-08-22T09:29:54.851Z,26.00
2022-08-22T09:33:02.643Z,26.04
2022-08-22T09:36:05.084Z,26.10
2022-08-22T09:39:05.788Z,26.08
2022-08-22T09:41:51.722Z,26.10
2022-08-22T09:44:59.915Z,26.00
2022-08-22T09:47:41.799Z,25.94
2022-08-22T09:50:45.217Z,25.80
2022-08-22T09:53:34.201Z,25.80
2022-08-22T09:56:55.905Z,25.90
2022-08-22T10:00:15.102Z,26.20
2022-08-22T10:03:15.933Z,26.20
2022-08-22T10:06:11.406Z,26.10
2022-08-22T10:08:58.490Z,26.10
2022-08-22T10:11:32.032Z,26.00
2022-08-22T10:14:08.483Z,25.90
2022-08-22T10:17:21.804Z,25.80
2022-08-22T10:20:02.695Z,25.80
2022-08-22T10:23:01.504Z,25.76
2022-08-22T10:26:29.576Z,25.70
2022-08-22T10:29:34.919Z,25.70
2022-08-22T10:33:00.392Z,25.50
2022-08-22T10:36:13.185Z,25.30
2022-08-22T10:38:50.251Z,25.12
2022-08-22T10:41:38.718Z,25.00
2022-08-22T10:44:22.793Z,25.06
2022-08-22T10:47:08.582Z,25.20
2022-08-22T10:49:47.067Z,25.30
2022-08-22T10:52:32.884Z,25.40
2022-08-22T10:55:17.292Z,25.50
2022-08-22T10:58:08.935Z,25.68
2022-08-22T11:00:54.996Z,25.80
2022-08-22T11:04:02.824Z,25.70
2022-08-22T11:06:57.819Z,25.60
2022-08-22T11:10:02.131Z,25.50
2022-08-22T11:12:41.616Z,25.30
2022-08-22T11:15:49.460Z,25.20
2022-08-22T11:18:58.625Z,25.10
2022-08-22T11:21:46.017Z,25.00
2022-08-22T11:24:34.764Z,24.90
2022-08-22T11:27:34.478Z,24.80
2022-08-22T11:30:36.494Z,24.80
2022-08-22T11:33:47.283Z,24.74
2022-08-22T11:36:39.200Z,24.70
2022-08-22T11:39:25.719Z,24.70
2022-08-22T11:42:01.433Z,24.82
2022-08-22T11:44:50.338Z,24.90
2022-08-22T11:47:26.744Z,25.00
2022-08-22T11:50:34.598Z,25.10
2022-08-22T11:53:24.113Z,25.20
2022-08-22T11:56:10.352Z,25.40
2022-08-22T11:59:26.729Z,25.60
2022-08-22T12:02:11.930Z,25.86
2022-08-22T12:04:50.554Z,26.08
2022-08-22T12:07:31.514Z,26.26
2022-08-22T12:10:27.587Z,26.50
2022-08-22T12:13:05.554Z,26.58
2022-08-22T12:15:53.990Z,26.70
2022-08-22T12:18:45.421Z,26.70
2022-08-22T12:21:36.742Z,26.70
2022-08-22T12:24:46.419Z,26.70
2022-08-22T12:27:40.430Z,26.60
2022-08-22T12:30:48.983Z,26.50
2022-08-22T12:33:31.233Z,26.50
2022-08-22T12:36:49.224Z,26.40
2022-08-22T12:39:52.168Z,26.30
2022-08-22T12:42:37.701Z,26.20
2022-08-22T12:45:46.497Z,26.30
2022-08-22T12:48:47.638Z,26.30
2022-08-22T12:51:29.496Z,26.40
2022-08-22T12:54:23.341Z,26.40
2022-08-22T12:57:25.060Z,26.40
2022-08-22T13:00:11.693Z,26.60
2022-08-22T13:02:39.738Z,26.72
2022-08-22T13:05:19.959Z,26.88
2022-08-22T13:08:01.261Z,27.06
2022-08-22T13:10:42.231Z,27.12
2022-08-22T13:13:31.611Z,27.20
2022-08-22T13:16:12.975Z,27.20
2022-08-22T13:18:55.849Z,27.20
2022-08-22T13:21:39.830Z,27.18
2022-08-22T13:24:22.749Z,27.00
2022-08-22T13:27:16.495Z,27.00
2022-08-22T13:29:58.586Z,27.00
2022-08-22T13:32:37.261Z,27.20
2022-08-22T13:35:09.358Z,27.38
2022-08-22T13:37:44.609Z,27.50
2022-08-22T13:40:33.862Z,27.44
2022-08-22T13:43:07.556Z,27.40
2022-08-22T13:45:38.150Z,27.30
2022-08-22T13:48:14.988Z,27.18
2022-08-22T13:51:16.322Z,27.10
2022-08-22T13:53:58.057Z,27.30
2022-08-22T13:56:47.188Z,27.40
2022-08-22T13:59:52.076Z,27.26
2022-08-22T14:02:55.218Z,27.50
2022-08-22T14:05:33.246Z,27.60
2022-08-22T14:08:18.465Z,27.70
2022-08-22T14:11:10.135Z,27.60
2022-08-22T14:13:56.414Z,27.50
2022-08-22T14:16:37.158Z,27.40
2022-08-22T14:19:28.034Z,27.30
2022-08-22T14:22:31.784Z,27.20
2022-08-22T14:25:18.163Z,27.10
2022-08-22T14:27:52.513Z,27.10
2022-08-22T14:30:28.184Z,27.00
2022-08-22T14:33:22.183Z,26.90
2022-08-22T14:36:03.801Z,27.10
2022-08-22T14:38:40.533Z,27.24
2022-08-22T14:41:55.740Z,27.30
2022-08-22T14:45:01.944Z,27.20
2022-08-22T14:47:55.676Z,27.20
2022-08-22T14:50:45.782Z,27.00
2022-08-22T14:53:19.942Z,26.80
2022-08-22T14:56:19.227Z,26.60
2022-08-22T14:58:53.384Z,26.50
2022-08-22T15:01:26.438Z,26.46
2022-08-22T15:04:07.857Z,26.40
2022-08-22T15:06:55.370Z,26.50
2022-08-22T15:09:37.744Z,26.70
2022-08-22T15:12:25.978Z,26.88
2022-08-22T15:15:00.407Z,26.92
2022-08-22T15:17:46.472Z,27.00
2022-08-22T15:20:49.105Z,27.10
2022-08-22T15:23:23.551Z,27.10
2022-08-22T15:26:02.354Z,27.10
2022-08-22T15:28:39.856Z,27.00
2022-08-22T15:31:20.672Z,26.90
2022-08-22T15:33:49.527Z,26.80
2022-08-22T15:36:26.739Z,26.80
2022-08-22T15:39:16.513Z,26.70
2022-08-22T15:41:48.338Z,26.70
2022-08-22T15:44:30.715Z,26.70
2022-08-22T15:47:24.162Z,26.70
2022-08-22T15:50:05.426Z,26.60
2022-08-22T15:53:08.576Z,26.50
2022-08-22T15:55:36.969Z,26.30
2022-08-22T15:58:24.639Z,26.20
2022-08-22T16:01:25.720Z,26.10
2022-08-22T16:04:03.880Z,26.10
2022-08-22T16:06:58.048Z,26.10
2022-08-22T16:09:44.574Z,26.10
2022-08-22T16:12:34.402Z,26.10
2022-08-22T16:15:07.601Z,26.00
2022-08-22T16:17:45.975Z,26.00
2022-08-22T16:20:20.373Z,25.88
2022-08-22T16:23:07.579Z,25.72
2022-08-22T16:25:46.782Z,25.60
2022-08-22T16:28:56.386Z,25.50
2022-08-22T16:31:29.290Z,25.40
2022-08-22T16:34:16.222Z,25.30
2022-08-22T16:36:48.582Z,25.20
2022-08-22T16:39:21.235Z,25.10
2022-08-22T16:41:56.506Z,24.90
2022-08-22T16:44:28.717Z,24.80
2022-08-22T16:47:22.585Z,24.68
2022-08-22T16:49:49.050Z,24.50
2022-08-22T16:52:22.218Z,24.40
2022-08-22T16:55:01.417Z,24.30
2022-08-22T16:57:54.434Z,24.20
2022-08-22T17:00:51.427Z,24.10
2022-08-22T17:03:39.063Z,24.00
2022-08-22T17:06:52.043Z,23.90
2022-08-22T17:09:40.511Z,23.80
2022-08-22T17:12:46.467Z,23.70
2022-08-22T17:15:40.362Z,23.58
2022-08-22T17:18:46.159Z,23.50
2022-08-22T17:21:27.916Z,23.40
2022-08-22T17:24:11.682Z,23.32
2022-08-22T17:27:18.666Z,23.30
2022-08-22T17:30:11.835Z,23.20
2022-08-22T17:33:27.954Z,23.10
2022-08-22T17:36:35.498Z,23.10
2022-08-22T17:39:20.432Z,23.00
2022-08-22T17:41:58.793Z,22.90
2022-08-22T17:44:52.863Z,22.80
2022-08-22T17:47:33.953Z,22.80
2022-08-22T17:50:13.182Z,22.70
2022-08-22T17:52:58.698Z,22.70
2022-08-22T17:55:32.614Z,22.68
2022-08-22T17:58:35.707Z,22.60
2022-08-22T18:01:14.921Z,22.56
2022-08-22T18:03:53.420Z,22.50
2022-08-22T18:06:29.975Z,22.44
2022-08-22T18:09:18.308Z,22.40
2022-08-22T18:12:00.899Z,22.40
2022-08-22T18:14:45.519Z,22.40
2022-08-22T18:17:29.971Z,22.30
2022-08-22T18:20:25.082Z,22.30
2022-08-22T18:23:21.851Z,22.30
2022-08-22T18:26:24.037Z,22.30
2022-08-22T18:29:03.163Z,22.30
2022-08-22T18:32:05.914Z,22.22
2022-08-22T18:34:47.083Z,22.20
2022-08-22T18:37:37.287Z,22.18
2022-08-22T18:40:22.633Z,22.10
2022-08-22T18:42:58.629Z,22.10
2022-08-22T18:45:44.736Z,22.08
2022-08-22T18:48:59.464Z,22.00
2022-08-22T18:51:38.310Z,22.00
2022-08-22T18:54:05.220Z,22.00
2022-08-22T18:56:33.081Z,22.00
2022-08-22T18:59:25.078Z,21.90
2022-08-22T19:02:15.528Z,21.90
2022-08-22T19:05:13.123Z,21.90
2022-08-22T19:08:08.381Z,21.90
2022-08-22T19:10:49.423Z,21.80
2022-08-22T19:13:25.288Z,21.80
2022-08-22T19:16:15.237Z,21.80
2022-08-22T19:18:53.027Z,21.78
2022-08-22T19:21:52.224Z,21.70
2022-08-22T19:24:27.537Z,21.70
2022-08-22T19:27:19.006Z,21.70
2022-08-22T19:29:45.860Z,21.68
2022-08-22T19:32:46.140Z,21.62
2022-08-22T19:35:34.791Z,21.60
2022-08-22T19:38:06.265Z,21.60
2022-08-22T19:40:44.980Z,21.50
2022-08-22T19:43:31.906Z,21.50
2022-08-22T19:46:04.281Z,21.50
2022-08-22T19:48:45.484Z,21.50
2022-08-22T19:51:28.743Z,21.50
2022-08-22T19:54:05.760Z,21.50
2022-08-22T19:56:49.640Z,21.50
2022-08-22T19:59:40.027Z,21.48
2022-08-22T20:02:35.140Z,21.42
2022-08-22T20:05:23.166Z,21.40
2022-08-22T20:08:34.730Z,21.40
2022-08-22T20:11:19.305Z,21.40
2022-08-22T20:13:46.174Z,21.40
2022-08-22T20:16:21.868Z,21.40
2022-08-22T20:19:08.928Z,21.30
2022-08-22T20:21:42.330Z,21.30
2022-08-22T20:24:52.622Z,21.20
2022-08-22T20:27:28.170Z,21.20
2022-08-22T20:30:02.579Z,21.10
2022-08-22T20:32:32.465Z,21.10
2022-08-22T20:35:04.675Z,21.10
2022-08-22T20:38:05.293Z,21.04
2022-08-22T20:40:59.469Z,21.00
2022-08-22T20:43:38.962Z,21.00
2022-08-22T20:46:25.294Z,20.98
2022-08-22T20:48:56.736Z,20.92
2022-08-22T20:51:29.831Z,20.90
2022-08-22T20:54:24.022Z,20.90
2022-08-22T20:57:00.193Z,20.90
2022-08-22T20:59:29.835Z,20.90
2022-08-22T21:02:13.460Z,20.86
2022-08-22T21:04:49.518Z,20.80
2022-08-22T21:07:28.899Z,20.80
2022-08-22T21:10:23.048Z,20.84
2022-08-22T21:13:17.384Z,20.80
2022-08-22T21:15:55.015Z,20.70
2022-08-22T21:18:33.190Z,20.60
2022-08-22T21:21:19.187Z,20.50
2022-08-22T21:23:57.420Z,20.50
2022-08-22T21:26:46.223Z,20.50
2022-08-22T21:29:12.731Z,20.50
2022-08-22T21:32:04.570Z,20.42
2022-08-22T21:34:45.998Z,20.40
2022-08-22T21:37:18.049Z,20.30
2022-08-22T21:39:50.233Z,20.30
2022-08-22T21:42:31.995Z,20.22
2022-08-22T21:45:04.174Z,20.20
2022-08-22T21:47:36.157Z,20.20
2022-08-22T21:50:27.211Z,20.18
2022-08-22T21:52:53.676Z,20.12
2022-08-22T21:55:47.116Z,20.10
2022-08-22T21:58:34.985Z,20.08
2022-08-22T22:01:31.788Z,20.00
2022-08-22T22:03:59.941Z,19.90
2022-08-22T22:06:27.004Z,19.82
2022-08-22T22:08:53.693Z,19.82
2022-08-22T22:11:20.568Z,19.88
2022-08-22T22:13:47.459Z,19.86
2022-08-22T22:16:24.460Z,19.82
2022-08-22T22:18:51.068Z,19.80
2022-08-22T22:21:17.650Z,19.70
2022-08-22T22:23:44.478Z,19.68
2022-08-22T22:26:11.705Z,19.70
2022-08-22T22:28:42.792Z,19.64
2022-08-22T22:31:10.041Z,19.60
2022-08-22T22:33:40.692Z,19.62
2022-08-22T22:36:14.756Z,19.60
2022-08-22T22:38:41.877Z,19.60
2022-08-22T22:41:08.605Z,19.60
2022-08-22T22:43:36.366Z,19.58
2022-08-22T22:46:03.235Z,19.60
2022-08-22T22:48:29.802Z,19.50
2022-08-22T22:50:56.504Z,19.52
2022-08-22T22:53:38.423Z,19.54
2022-08-22T22:56:11.629Z,19.60
2022-08-22T22:58:41.223Z,19.50
2022-08-22T23:01:20.231Z,19.40
2022-08-22T23:03:53.494Z,19.40
2022-08-22T23:06:23.418Z,19.30
2022-08-22T23:08:50.788Z,19.20
2022-08-22T23:11:28.015Z,19.20
2022-08-22T23:13:55.318Z,19.30
2022-08-22T23:16:28.418Z,19.30
2022-08-22T23:18:56.313Z,19.30
2022-08-22T23:21:30.042Z,19.26
2022-08-22T23:24:00.072Z,19.20
2022-08-22T23:26:28.261Z,19.30
2022-08-22T23:28:55.151Z,19.30
2022-08-22T23:31:32.605Z,19.30
2022-08-22T23:34:10.298Z,19.30
2022-08-22T23:36:38.535Z,19.30
2022-08-22T23:39:08.181Z,19.36
2022-08-22T23:41:36.678Z,19.40
2022-08-22T23:44:07.196Z,19.50
2022-08-22T23:46:36.623Z,19.50
2022-08-22T23:49:05.552Z,19.50
2022-08-22T23:51:32.712Z,19.50
2022-08-22T23:54:00.552Z,19.50
2022-08-22T23:56:35.427Z,19.50
2022-08-22T23:59:07.916Z,19.50
